Time;durP1;ratioP1;P1;durP2;ratioP2;P2;SDS_P1;SDS_P2;PMS_P1;PMS_P2;Temp;Humidity;BMP_temperature;BMP_pressure;BME280_temperature;BME280_humidity;BME280_pressure;Samples;Min_cycle;Max_cycle;Signal;HPM_P1;HPM_P2
2023/12/01 00:02:11;;;;;;;8.43;4.68;;;10.70;94.90;;;;;;5012966;28;20025;-46
2023/12/01 00:04:37;;;;;;;6.05;4.28;;;10.70;94.90;;;;;;5012888;28;20061;-45
2023/12/01 00:07:04;;;;;;;6.97;4.53;;;10.70;94.90;;;;;;5013119;28;20093;-45
2023/12/01 00:09:30;;;;;;;6.38;4.20;;;10.70;94.90;;;;;;5014369;28;20049;-45
2023/12/01 00:11:56;;;;;;;6.15;4.13;;;10.70;94.90;;;;;;5012981;28;20396;-46
2023/12/01 00:14:22;;;;;;;5.30;4.18;;;10.70;94.90;;;;;;5012782;28;20030;-44
2023/12/01 00:16:47;;;;;;;6.05;4.30;;;10.70;94.90;;;;;;5012694;28;20399;-45
2023/12/01 00:19:13;;;;;;;7.40;4.18;;;10.70;94.90;;;;;;5012985;28;20026;-45
2023/12/01 00:21:39;;;;;;;6.57;4.45;;;10.70;94.90;;;;;;5012422;28;20504;-44
2023/12/01 00:24:05;;;;;;;6.78;4.50;;;10.70;94.90;;;;;;5012682;28;20026;-44
2023/12/01 00:26:30;;;;;;;5.35;4.20;;;10.70;95.00;;;;;;5012472;28;20080;-45
2023/12/01 00:28:56;;;;;;;7.18;4.25;;;10.70;95.00;;;;;;5012371;28;20026;-45
2023/12/01 00:31:22;;;;;;;6.45;4.22;;;10.70;95.00;;;;;;5012586;28;20403;-45
2023/12/01 00:33:47;;;;;;;5.60;4.07;;;10.60;95.00;;;;;;5013010;28;20044;-45
2023/12/01 00:36:13;;;;;;;8.00;4.93;;;10.60;95.00;;;;;;5012191;28;20451;-45
2023/12/01 00:38:38;;;;;;;6.53;4.15;;;10.60;95.00;;;;;;5012304;28;20036;-44
2023/12/01 00:41:05;;;;;;;7.13;4.38;;;10.60;95.00;;;;;;5012576;28;20036;-45
2023/12/01 00:43:30;;;;;;;6.25;4.30;;;10.60;95.00;;;;;;5012656;28;20037;-44
2023/12/01 00:45:56;;;;;;;7.13;4.38;;;10.60;95.00;;;;;;5012109;28;20384;-45
2023/12/01 00:48:21;;;;;;;5.43;3.80;;;10.60;95.10;;;;;;5012395;28;20076;-44
2023/12/01 00:50:47;;;;;;;5.43;4.03;;;10.60;95.10;;;;;;5013147;28;20034;-45
2023/12/01 00:53:13;;;;;;;5.32;3.92;;;10.60;95.10;;;;;;5013048;28;20022;-45
2023/12/01 00:55:40;;;;;;;6.10;4.07;;;10.60;95.10;;;;;;5012790;28;20025;-45
2023/12/01 00:58:06;;;;;;;6.35;4.40;;;10.60;95.10;;;;;;5012254;28;20030;-45
2023/12/01 01:00:32;;;;;;;5.60;4.15;;;10.60;95.10;;;;;;5011929;28;20096;-45
2023/12/01 01:02:57;;;;;;;6.13;4.22;;;10.60;95.10;;;;;;5013133;28;20066;-44
2023/12/01 01:05:23;;;;;;;4.85;3.55;;;10.60;95.10;;;;;;5011658;28;20026;-45
2023/12/01 01:07:48;;;;;;;5.20;4.00;;;10.60;95.10;;;;;;5010977;28;20037;-45
2023/12/01 01:10:14;;;;;;;5.72;3.80;;;10.60;95.20;;;;;;5011917;28;20500;-45
2023/12/01 01:12:40;;;;;;;5.07;3.60;;;10.60;95.20;;;;;;5012354;28;20026;-45
2023/12/01 01:15:06;;;;;;;4.70;3.65;;;10.60;95.20;;;;;;5012830;28;20048;-44
2023/12/01 01:17:32;;;;;;;5.97;3.90;;;10.60;95.20;;;;;;5011641;28;20017;-43
2023/12/01 01:19:58;;;;;;;4.88;3.70;;;10.60;95.20;;;;;;5012271;28;20389;-44
2023/12/01 01:22:25;;;;;;;5.40;4.32;;;10.60;95.20;;;;;;5012120;28;20034;-45
2023/12/01 01:24:50;;;;;;;5.20;3.63;;;10.60;95.30;;;;;;5012153;28;20034;-45
2023/12/01 01:27:16;;;;;;;6.05;4.22;;;10.50;95.20;;;;;;5011503;28;20028;-45
2023/12/01 01:29:43;;;;;;;5.10;3.90;;;10.60;95.20;;;;;;5012023;28;20365;-45
2023/12/01 01:32:08;;;;;;;5.60;4.10;;;10.50;95.30;;;;;;5011619;28;20029;-44
2023/12/01 01:34:34;;;;;;;6.20;4.13;;;10.60;95.20;;;;;;5011403;28;20535;-44
2023/12/01 01:36:59;;;;;;;5.75;4.00;;;10.50;95.20;;;;;;5011862;28;20057;-44
2023/12/01 01:39:26;;;;;;;6.25;3.83;;;10.50;95.20;;;;;;5011787;28;20492;-44
2023/12/01 01:41:53;;;;;;;5.68;4.13;;;10.50;95.30;;;;;;5011516;28;20399;-45
2023/12/01 01:44:18;;;;;;;5.68;3.80;;;10.50;95.30;;;;;;5011666;28;20022;-46
2023/12/01 01:46:46;;;;;;;7.38;4.25;;;10.50;95.30;;;;;;5011413;28;20030;-45
2023/12/01 01:49:12;;;;;;;5.50;3.40;;;10.50;95.30;;;;;;5011060;28;20049;-45
2023/12/01 01:51:38;;;;;;;5.05;3.60;;;10.50;95.30;;;;;;5011612;28;20376;-45
2023/12/01 01:54:05;;;;;;;4.63;3.30;;;10.50;95.30;;;;;;5011416;28;20104;-45
2023/12/01 01:56:31;;;;;;;5.68;3.78;;;10.50;95.30;;;;;;5011871;28;20034;-45
2023/12/01 01:58:58;;;;;;;5.55;4.07;;;10.50;95.30;;;;;;5011150;28;20025;-46
2023/12/01 02:01:25;;;;;;;5.50;3.88;;;10.50;95.30;;;;;;5011658;28;20038;-45
2023/12/01 02:03:52;;;;;;;4.90;3.58;;;10.50;95.30;;;;;;5011211;28;20034;-45
2023/12/01 02:06:19;;;;;;;5.68;3.78;;;10.50;95.30;;;;;;5011715;28;20504;-45
2023/12/01 02:08:45;;;;;;;5.35;3.80;;;10.50;95.30;;;;;;5011699;28;20045;-45
2023/12/01 02:11:13;;;;;;;5.53;3.92;;;10.50;95.40;;;;;;5011831;28;20022;-45
2023/12/01 02:13:39;;;;;;;6.18;3.85;;;10.50;95.40;;;;;;5011606;28;20076;-45
2023/12/01 02:16:06;;;;;;;5.70;3.60;;;10.50;95.70;;;;;;5010999;28;20495;-45
2023/12/01 02:18:35;;;;;;;5.72;3.72;;;10.50;95.40;;;;;;5011259;28;20022;-45
2023/12/01 02:21:01;;;;;;;6.60;4.10;;;10.50;95.40;;;;;;5011089;28;20515;-45
2023/12/01 02:23:27;;;;;;;6.10;4.05;;;10.50;95.40;;;;;;5014522;28;20065;-45
2023/12/01 02:25:53;;;;;;;6.78;3.85;;;10.50;95.40;;;;;;5015119;28;20830;-45
2023/12/01 02:28:19;;;;;;;7.10;4.00;;;10.50;95.40;;;;;;5015691;28;20502;-45
2023/12/01 02:30:54;;;;;;;5.97;4.35;;;10.50;95.40;;;;;;5015284;28;20033;-45
2023/12/01 02:33:20;;;;;;;5.45;3.45;;;10.50;95.40;;;;;;5014937;28;20124;-45
2023/12/01 02:35:46;;;;;;;5.05;3.75;;;10.50;95.70;;;;;;5014562;28;20029;-44
2023/12/01 02:38:12;;;;;;;5.80;3.83;;;10.50;95.40;;;;;;5014543;28;20025;-45
2023/12/01 02:40:42;;;;;;;5.45;3.88;;;10.50;95.40;;;;;;5015464;28;20057;-44
2023/12/01 02:43:11;;;;;;;5.35;3.75;;;10.50;95.40;;;;;;5015193;28;20471;-45
2023/12/01 02:45:37;;;;;;;4.85;3.33;;;10.50;95.40;;;;;;5014846;28;20483;-45
2023/12/01 02:48:04;;;;;;;6.32;3.80;;;10.40;95.40;;;;;;5012964;28;20439;-45
2023/12/01 02:50:31;;;;;;;5.82;3.90;;;10.50;95.40;;;;;;5014315;28;20484;-45
2023/12/01 02:52:57;;;;;;;4.05;3.05;;;10.50;95.50;;;;;;5014480;28;20026;-44
2023/12/01 02:55:23;;;;;;;4.90;3.50;;;10.50;95.50;;;;;;5014396;28;20097;-45
2023/12/01 02:57:48;;;;;;;6.63;3.90;;;10.40;95.80;;;;;;5014113;28;20509;-45
2023/12/01 03:00:14;;;;;;;6.35;3.28;;;10.40;95.50;;;;;;5014432;28;20022;-45
2023/12/01 03:02:41;;;;;;;5.65;3.70;;;10.50;95.50;;;;;;5014355;28;20168;-42
2023/12/01 03:05:08;;;;;;;7.57;3.65;;;10.40;95.50;;;;;;5014545;28;20105;-44
2023/12/01 03:07:35;;;;;;;5.72;3.75;;;10.50;95.50;;;;;;5013966;28;20121;-45
2023/12/01 03:10:01;;;;;;;5.07;3.38;;;10.40;95.50;;;;;;5014338;28;20103;-44
2023/12/01 03:12:27;;;;;;;5.22;3.38;;;10.40;95.50;;;;;;5014804;28;20061;-45
2023/12/01 03:14:53;;;;;;;5.50;3.88;;;10.40;95.50;;;;;;5014070;28;20541;-44
2023/12/01 03:17:21;;;;;;;4.70;3.40;;;10.40;95.50;;;;;;5014417;28;20033;-45
2023/12/01 03:19:47;;;;;;;4.88;3.40;;;10.40;95.50;;;;;;5013689;28;20026;-45
2023/12/01 03:22:13;;;;;;;4.47;3.20;;;10.40;95.50;;;;;;5013906;28;20447;-45
2023/12/01 03:24:40;;;;;;;4.93;3.50;;;10.40;95.50;;;;;;5013767;28;20057;-45
2023/12/01 03:27:06;;;;;;;4.78;3.55;;;10.40;95.50;;;;;;5014234;28;20030;-44
2023/12/01 03:29:33;;;;;;;4.72;3.45;;;10.40;95.50;;;;;;5014612;28;20026;-45
2023/12/01 03:31:59;;;;;;;5.28;3.33;;;10.40;95.50;;;;;;5013638;28;20029;-45
2023/12/01 03:34:24;;;;;;;5.07;3.58;;;10.40;95.50;;;;;;5014428;28;20030;-45
2023/12/01 03:36:51;;;;;;;5.63;4.00;;;10.40;95.50;;;;;;5013477;28;20033;-44
2023/12/01 03:39:16;;;;;;;5.20;3.63;;;10.40;95.50;;;;;;5013145;28;20022;-45
2023/12/01 03:41:47;;;;;;;5.38;3.58;;;10.40;95.90;;;;;;5013465;28;20034;-45
2023/12/01 03:44:13;;;;;;;4.57;3.10;;;10.40;95.50;;;;;;5013930;28;20029;-44
2023/12/01 03:46:38;;;;;;;4.45;3.25;;;10.40;95.50;;;;;;5013520;28;20413;-45
2023/12/01 03:49:04;;;;;;;5.40;3.30;;;10.40;95.50;;;;;;5013104;28;20049;-45
2023/12/01 03:51:30;;;;;;;3.67;3.10;;;10.40;95.50;;;;;;5014215;28;20392;-45
2023/12/01 03:53:55;;;;;;;5.15;3.42;;;10.40;95.50;;;;;;5014132;28;20060;-45
2023/12/01 03:56:21;;;;;;;4.63;3.30;;;10.40;95.60;;;;;;5013966;28;20030;-44
2023/12/01 03:58:46;;;;;;;4.35;3.40;;;10.40;95.50;;;;;;5013115;28;20032;-45
2023/12/01 04:01:12;;;;;;;4.57;3.20;;;10.40;95.60;;;;;;5013215;28;20495;-43
2023/12/01 04:03:38;;;;;;;5.05;3.38;;;10.40;95.60;;;;;;5013367;28;20061;-45
2023/12/01 04:06:03;;;;;;;4.30;3.17;;;10.40;95.60;;;;;;5012758;28;20443;-45
2023/12/01 04:08:29;;;;;;;6.10;3.85;;;10.40;95.60;;;;;;5012819;28;20057;-45
2023/12/01 04:10:55;;;;;;;5.30;3.13;;;10.40;95.60;;;;;;5013446;28;20030;-45
2023/12/01 04:13:21;;;;;;;3.60;2.95;;;10.40;95.60;;;;;;5013845;28;20029;-45
2023/12/01 04:15:47;;;;;;;4.57;3.20;;;10.40;95.60;;;;;;5013031;28;20022;-45
2023/12/01 04:18:13;;;;;;;4.63;3.17;;;10.40;95.60;;;;;;5012609;28;20025;-45
2023/12/01 04:20:39;;;;;;;5.03;3.25;;;10.40;95.60;;;;;;5012615;28;20049;-45
2023/12/01 04:23:09;;;;;;;3.97;2.95;;;10.40;95.60;;;;;;5012433;28;20034;-45
2023/12/01 04:25:39;;;;;;;5.18;3.28;;;10.40;95.60;;;;;;5012640;28;20041;-45
2023/12/01 04:28:06;;;;;;;5.18;3.30;;;10.40;95.60;;;;;;5012540;28;20396;-45
2023/12/01 04:30:32;;;;;;;6.30;3.10;;;10.40;95.60;;;;;;5012426;28;20387;-45
2023/12/01 04:32:59;;;;;;;4.35;3.00;;;10.40;95.60;;;;;;5012838;28;20021;-45
2023/12/01 04:35:33;;;;;;;4.63;3.30;;;10.40;95.60;;;;;;5012360;28;20368;-45
2023/12/01 04:38:00;;;;;;;4.05;2.85;;;10.40;95.60;;;;;;5013193;28;20022;-45
2023/12/01 04:40:27;;;;;;;3.85;2.80;;;10.40;95.60;;;;;;5012243;28;20538;-44
2023/12/01 04:42:57;;;;;;;4.43;3.30;;;10.40;95.70;;;;;;5012676;28;20054;-45
2023/12/01 04:45:25;;;;;;;4.78;3.10;;;10.40;95.70;;;;;;5011385;28;20056;-45
2023/12/01 04:47:52;;;;;;;4.75;3.17;;;10.30;95.60;;;;;;5012327;28;20022;-45
2023/12/01 04:50:20;;;;;;;4.13;2.70;;;10.40;95.70;;;;;;5012534;28;20041;-44
2023/12/01 04:52:50;;;;;;;4.32;3.10;;;10.40;95.60;;;;;;5012165;28;20160;-45
2023/12/01 04:55:18;;;;;;;4.55;3.03;;;10.40;95.70;;;;;;5012084;28;20022;-44
2023/12/01 04:57:44;;;;;;;3.70;2.95;;;10.40;95.70;;;;;;5011975;28;20499;-44
2023/12/01 05:00:22;;;;;;;4.90;2.88;;;10.30;95.60;;;;;;5011840;28;20026;-43
2023/12/01 05:02:52;;;;;;;4.18;2.88;;;10.40;95.70;;;;;;5012013;28;20021;-43
2023/12/01 05:05:20;;;;;;;4.30;2.80;;;10.40;95.70;;;;;;5012221;28;20025;-44
2023/12/01 05:07:49;;;;;;;4.00;2.90;;;10.30;95.60;;;;;;5012639;28;20100;-44
2023/12/01 05:10:15;;;;;;;3.55;2.50;;;10.40;95.70;;;;;;5012246;28;20511;-45
2023/12/01 05:12:49;;;;;;;4.20;2.65;;;10.40;95.70;;;;;;5012410;28;20472;-45
2023/12/01 05:15:18;;;;;;;3.20;2.42;;;10.30;95.60;;;;;;5012035;28;20021;-45
2023/12/01 05:18:07;;;;;;;3.33;2.60;;;10.40;95.70;;;;;;5012431;28;20037;-44
2023/12/01 05:20:34;;;;;;;4.13;3.10;;;10.40;95.70;;;;;;5012154;28;20022;-44
2023/12/01 05:23:05;;;;;;;3.42;2.42;;;10.40;96.00;;;;;;5011699;28;20053;-44
2023/12/01 05:25:33;;;;;;;3.72;2.90;;;10.40;95.70;;;;;;5012248;28;20029;-44
2023/12/01 05:28:03;;;;;;;3.08;2.58;;;10.40;95.70;;;;;;5012106;28;20490;-45
2023/12/01 05:30:31;;;;;;;4.60;2.70;;;10.30;95.70;;;;;;5011897;28;20603;-44
2023/12/01 05:32:58;;;;;;;3.45;2.53;;;10.40;95.70;;;;;;5012012;28;20038;-45
2023/12/01 05:35:24;;;;;;;4.05;3.10;;;10.30;95.70;;;;;;5012774;28;20053;-45
2023/12/01 05:37:52;;;;;;;3.08;2.33;;;10.40;95.70;;;;;;5012598;28;20025;-45
2023/12/01 05:40:22;;;;;;;3.80;2.53;;;10.40;95.70;;;;;;5012236;28;20026;-43
2023/12/01 05:42:50;;;;;;;3.30;2.40;;;10.30;95.70;;;;;;5011414;28;20060;-44
2023/12/01 05:45:16;;;;;;;3.75;2.88;;;10.30;95.70;;;;;;5012224;28;20034;-45
2023/12/01 05:47:43;;;;;;;3.63;2.67;;;10.40;95.70;;;;;;5011661;28;20022;-45
2023/12/01 05:50:14;;;;;;;4.03;2.47;;;10.40;95.70;;;;;;5011832;28;20087;-45
2023/12/01 05:52:45;;;;;;;3.50;2.70;;;10.30;95.70;;;;;;5012262;28;20044;-44
2023/12/01 05:55:15;;;;;;;2.47;2.10;;;10.30;95.70;;;;;;5011748;28;20034;-43
2023/12/01 05:57:45;;;;;;;3.22;2.42;;;10.30;95.70;;;;;;5015510;28;20026;-45
2023/12/01 06:00:12;;;;;;;2.97;2.13;;;10.30;95.70;;;;;;5015930;28;20065;-45
2023/12/01 06:03:00;;;;;;;3.25;2.50;;;10.30;95.70;;;;;;5015172;28;20022;-45
2023/12/01 06:05:26;;;;;;;3.55;2.25;;;10.40;95.70;;;;;;5015608;28;20038;-45
2023/12/01 06:07:58;;;;;;;3.35;2.30;;;10.30;95.70;;;;;;5016317;28;20015;-44
2023/12/01 06:10:24;;;;;;;3.33;2.45;;;10.30;95.70;;;;;;5015367;28;20029;-43
2023/12/01 06:12:50;;;;;;;3.45;2.38;;;10.30;95.70;;;;;;5015541;28;20022;-45
2023/12/01 06:15:17;;;;;;;3.33;2.30;;;10.30;95.70;;;;;;5015012;28;20041;-45
2023/12/01 06:17:48;;;;;;;4.90;2.50;;;10.30;96.10;;;;;;5015701;28;20040;-43
2023/12/01 06:20:18;;;;;;;3.65;2.30;;;10.30;95.70;;;;;;5015668;28;20022;-45
2023/12/01 06:22:48;;;;;;;3.42;2.47;;;10.30;95.80;;;;;;5015371;28;20036;-45
2023/12/01 06:25:15;;;;;;;2.58;2.08;;;10.30;95.80;;;;;;5015280;28;20025;-45
2023/12/01 06:27:41;;;;;;;2.33;1.95;;;10.30;95.80;;;;;;5014748;28;20447;-44
2023/12/01 06:30:11;;;;;;;3.28;2.30;;;10.40;95.90;;;;;;5014750;28;20476;-44
2023/12/01 06:32:47;;;;;;;3.35;2.20;;;10.40;96.00;;;;;;5015363;28;20405;-45
2023/12/01 06:35:14;;;;;;;2.67;1.95;;;10.40;96.00;;;;;;5014711;28;20026;-45
2023/12/01 06:37:41;;;;;;;2.92;2.20;;;10.40;95.90;;;;;;5014504;28;20089;-45
2023/12/01 06:40:17;;;;;;;2.88;2.30;;;10.50;95.90;;;;;;5015097;28;20041;-44
2023/12/01 06:42:45;;;;;;;2.47;1.80;;;10.50;95.80;;;;;;5014559;28;20030;-45
2023/12/01 06:45:14;;;;;;;2.58;1.80;;;10.60;96.10;;;;;;5014571;28;20400;-45
2023/12/01 06:47:42;;;;;;;3.22;1.77;;;10.60;95.70;;;;;;5014821;28;20018;-43
2023/12/01 06:50:09;;;;;;;2.78;1.98;;;10.60;95.60;;;;;;5014380;28;20060;-44
2023/12/01 06:52:36;;;;;;;5.07;2.22;;;10.70;95.60;;;;;;5014546;28;20519;-44
2023/12/01 06:55:03;;;;;;;2.10;1.85;;;10.70;95.50;;;;;;5014570;28;20061;-44
2023/12/01 06:57:29;;;;;;;2.50;2.00;;;10.80;95.40;;;;;;5014502;28;20105;-44
2023/12/01 06:59:54;;;;;;;2.17;1.98;;;10.80;95.40;;;;;;5014661;28;20480;-43
2023/12/01 07:02:20;;;;;;;2.65;1.95;;;10.80;95.30;;;;;;5014606;28;20053;-45
2023/12/01 07:04:46;;;;;;;2.80;1.95;;;10.80;95.30;;;;;;5013987;28;20072;-45
2023/12/01 07:07:12;;;;;;;2.42;1.80;;;10.80;95.20;;;;;;5013696;28;20026;-44
2023/12/01 07:09:41;;;;;;;2.45;1.85;;;10.80;95.20;;;;;;5014454;28;20057;-44
2023/12/01 07:12:07;;;;;;;2.95;2.00;;;10.90;95.20;;;;;;5014370;28;20075;-44
2023/12/01 07:14:36;;;;;;;1.92;1.65;;;10.80;95.20;;;;;;5014543;28;20030;-44
2023/12/01 07:17:02;;;;;;;1.95;1.63;;;10.90;95.20;;;;;;5014689;28;20033;-45
2023/12/01 07:19:28;;;;;;;2.05;1.55;;;10.90;95.20;;;;;;5013731;28;20058;-44
2023/12/01 07:21:55;;;;;;;2.92;1.95;;;10.90;95.20;;;;;;5014413;28;20475;-44
2023/12/01 07:24:21;;;;;;;2.33;1.65;;;10.90;95.10;;;;;;5013714;28;20022;-44
2023/12/01 07:26:51;;;;;;;2.20;1.70;;;10.90;95.10;;;;;;5013656;28;20022;-45
2023/12/01 07:29:18;;;;;;;2.30;2.00;;;11.00;95.10;;;;;;5013566;28;20080;-44
2023/12/01 07:31:44;;;;;;;1.73;1.55;;;11.00;95.00;;;;;;5014497;28;20022;-45
2023/12/01 07:34:11;;;;;;;2.88;1.75;;;11.00;95.00;;;;;;5013977;28;20025;-44
2023/12/01 07:36:40;;;;;;;1.50;1.40;;;11.10;95.00;;;;;;5014486;28;20029;-45
2023/12/01 07:39:06;;;;;;;1.90;1.70;;;11.10;94.90;;;;;;5013957;28;20403;-45
2023/12/01 07:41:32;;;;;;;1.90;1.70;;;11.10;94.90;;;;;;5013615;28;20428;-45
2023/12/01 07:43:58;;;;;;;2.42;1.80;;;11.20;94.80;;;;;;5013334;28;20027;-45
2023/12/01 07:46:23;;;;;;;3.33;1.75;;;11.20;94.80;;;;;;5013239;28;20483;-45
2023/12/01 07:48:49;;;;;;;2.05;1.70;;;11.20;94.70;;;;;;5013304;28;20030;-45
2023/12/01 07:51:16;;;;;;;2.63;1.85;;;11.30;94.70;;;;;;5013714;28;20026;-44
2023/12/01 07:53:44;;;;;;;2.05;1.60;;;11.30;94.70;;;;;;5013498;28;20436;-45
2023/12/01 07:56:11;;;;;;;2.35;1.70;;;11.30;94.60;;;;;;5013079;28;20033;-45
2023/12/01 07:58:36;;;;;;;2.45;1.85;;;11.30;94.50;;;;;;5013110;28;20036;-44
2023/12/01 08:01:03;;;;;;;2.10;1.73;;;11.40;94.50;;;;;;5013064;28;20034;-45
2023/12/01 08:03:28;;;;;;;2.03;1.73;;;11.40;94.50;;;;;;5012935;28;20026;-43
2023/12/01 08:05:54;;;;;;;3.05;2.00;;;11.40;94.40;;;;;;5012940;28;20395;-45
2023/12/01 08:08:20;;;;;;;2.65;2.00;;;11.40;94.40;;;;;;5012992;28;20021;-44
2023/12/01 08:10:46;;;;;;;2.25;1.90;;;11.40;94.40;;;;;;5013332;28;20117;-45
2023/12/01 08:13:11;;;;;;;2.53;2.13;;;11.50;94.30;;;;;;5013658;28;20025;-44
2023/12/01 08:15:37;;;;;;;2.03;1.77;;;11.50;94.30;;;;;;5003549;28;20042;-45
2023/12/01 08:18:04;;;;;;;2.58;1.88;;;11.50;94.30;;;;;;5013177;28;20026;-44
2023/12/01 08:20:29;;;;;;;2.13;1.85;;;11.50;94.20;;;;;;5012686;28;20018;-44
2023/12/01 08:22:57;;;;;;;3.00;2.20;;;11.50;94.20;;;;;;5012513;28;20049;-44
2023/12/01 08:25:23;;;;;;;2.35;1.73;;;11.50;94.20;;;;;;5012904;28;20045;-44
2023/12/01 08:27:48;;;;;;;2.70;1.92;;;11.60;94.20;;;;;;5013423;28;20061;-44
2023/12/01 08:30:15;;;;;;;2.95;1.85;;;11.60;94.10;;;;;;5013125;28;20030;-44
2023/12/01 08:32:40;;;;;;;2.08;1.63;;;11.60;94.10;;;;;;5012446;28;20421;-45
2023/12/01 08:35:08;;;;;;;2.15;1.70;;;11.60;94.10;;;;;;5012878;28;20029;-45
2023/12/01 08:37:34;;;;;;;2.13;1.83;;;11.60;94.10;;;;;;5013274;28;20041;-44
2023/12/01 08:40:00;;;;;;;2.25;1.80;;;11.60;94.10;;;;;;5012714;28;20026;-45
2023/12/01 08:42:25;;;;;;;2.38;1.75;;;11.60;94.10;;;;;;5012347;28;20104;-45
2023/12/01 08:44:51;;;;;;;3.45;1.67;;;11.60;94.00;;;;;;5012694;28;20032;-45
2023/12/01 08:47:20;;;;;;;4.32;3.15;;;11.60;94.10;;;;;;5011977;28;20514;-44
2023/12/01 08:49:46;;;;;;;4.93;3.03;;;11.70;93.70;;;;;;5012100;28;20026;-40
2023/12/01 08:52:11;;;;;;;4.20;3.47;;;11.60;93.60;;;;;;5012688;28;20053;-44
2023/12/01 08:54:37;;;;;;;3.47;2.88;;;11.60;93.60;;;;;;5012152;28;20021;-43
2023/12/01 08:57:03;;;;;;;3.70;3.00;;;11.50;93.60;;;;;;5013101;28;20080;-43
2023/12/01 08:59:28;;;;;;;4.55;3.00;;;11.50;93.70;;;;;;5012407;28;20400;-41
2023/12/01 09:01:54;;;;;;;3.75;2.90;;;11.50;93.70;;;;;;5012062;28;20034;-44
2023/12/01 09:04:21;;;;;;;4.10;3.08;;;11.50;93.80;;;;;;5011898;28;20033;-43
2023/12/01 09:06:46;;;;;;;4.00;2.97;;;11.50;93.80;;;;;;5011873;28;20023;-44
2023/12/01 09:09:12;;;;;;;3.67;2.75;;;11.50;93.80;;;;;;5011705;28;20026;-42
2023/12/01 09:11:38;;;;;;;3.42;2.80;;;11.50;93.80;;;;;;5012282;28;20022;-44
2023/12/01 09:14:03;;;;;;;3.25;2.78;;;11.50;94.20;;;;;;5011824;28;20030;-44
2023/12/01 09:16:29;;;;;;;3.28;2.67;;;11.50;93.80;;;;;;5011976;28;20108;-44
2023/12/01 09:18:54;;;;;;;2.92;2.40;;;11.50;93.80;;;;;;5012036;28;20104;-42
2023/12/01 09:21:20;;;;;;;3.00;2.40;;;11.50;93.80;;;;;;5011658;28;20411;-44
2023/12/01 09:23:46;;;;;;;3.00;2.60;;;11.50;93.80;;;;;;5011710;28;20044;-43
2023/12/01 09:26:18;;;;;;;3.28;2.60;;;11.50;93.80;;;;;;5011800;28;20539;-44
2023/12/01 09:28:43;;;;;;;3.45;2.60;;;11.50;93.80;;;;;;5011487;28;20391;-44
2023/12/01 09:31:12;;;;;;;3.15;2.40;;;11.50;93.80;;;;;;5011959;28;20112;-42
2023/12/01 09:33:38;;;;;;;3.92;2.53;;;11.60;93.90;;;;;;5012016;28;20506;-43
2023/12/01 09:36:04;;;;;;;3.95;2.50;;;11.60;93.90;;;;;;5011455;28;20033;-44
2023/12/01 09:38:31;;;;;;;3.10;2.20;;;11.60;93.90;;;;;;5011834;28;20041;-44
2023/12/01 09:40:57;;;;;;;2.53;2.33;;;11.60;93.90;;;;;;5011475;28;20041;-41
2023/12/01 09:43:23;;;;;;;3.13;2.38;;;11.60;93.90;;;;;;5011317;28;20038;-44
2023/12/01 09:45:50;;;;;;;3.78;2.78;;;11.60;93.90;;;;;;5011447;28;20097;-44
2023/12/01 09:48:18;;;;;;;3.40;2.45;;;11.60;93.90;;;;;;5011632;28;20109;-43
2023/12/01 09:50:44;;;;;;;3.38;2.22;;;11.60;93.90;;;;;;5011884;28;20435;-42
2023/12/01 09:53:11;;;;;;;3.53;2.30;;;11.60;93.90;;;;;;5012046;28;20052;-44
2023/12/01 09:55:36;;;;;;;3.17;2.20;;;11.60;93.90;;;;;;5012258;28;20026;-44
2023/12/01 09:58:03;;;;;;;3.03;2.20;;;11.60;93.90;;;;;;5011590;28;20032;-43
2023/12/01 10:00:29;;;;;;;2.85;2.03;;;11.60;93.80;;;;;;5011977;28;20022;-44
2023/12/01 10:02:54;;;;;;;2.78;2.00;;;11.60;93.90;;;;;;5011589;28;20065;-44
2023/12/01 10:05:20;;;;;;;2.67;1.92;;;11.60;93.90;;;;;;5012953;28;20026;-43
2023/12/01 10:07:48;;;;;;;3.25;2.40;;;11.60;93.80;;;;;;5011667;28;20320;-44
2023/12/01 10:10:21;;;;;;;3.47;2.25;;;11.60;93.80;;;;;;5011223;28;20511;-44
2023/12/01 10:12:58;;;;;;;2.65;1.90;;;11.60;93.90;;;;;;5011385;28;20440;-41
2023/12/01 10:15:24;;;;;;;3.42;2.15;;;11.60;93.80;;;;;;5011880;28;20029;-44
2023/12/01 10:17:51;;;;;;;2.50;2.00;;;11.60;93.80;;;;;;5011545;28;20022;-44
2023/12/01 10:20:21;;;;;;;2.38;2.10;;;11.60;93.90;;;;;;5011644;28;20379;-44
2023/12/01 10:22:49;;;;;;;3.17;1.90;;;11.60;93.90;;;;;;5011006;28;20036;-43
2023/12/01 10:25:15;;;;;;;2.95;2.00;;;11.60;93.90;;;;;;5011458;28;20030;-43
2023/12/01 10:27:41;;;;;;;2.60;2.00;;;11.60;93.80;;;;;;5012584;28;20076;-44
2023/12/01 10:30:14;;;;;;;2.63;2.13;;;11.70;93.90;;;;;;5011506;28;20021;-42
2023/12/01 10:32:43;;;;;;;2.65;2.03;;;11.60;93.80;;;;;;5011524;28;20064;-43
2023/12/01 10:35:09;;;;;;;2.80;1.92;;;11.60;93.90;;;;;;5011028;28;20410;-44
2023/12/01 10:37:37;;;;;;;2.70;2.05;;;11.60;93.90;;;;;;5010958;28;20029;-44
2023/12/01 10:40:08;;;;;;;2.78;2.03;;;11.70;93.80;;;;;;5011047;28;20104;-42
2023/12/01 10:42:34;;;;;;;2.70;1.80;;;11.70;93.80;;;;;;5011876;28;20101;-43
2023/12/01 10:45:02;;;;;;;1.90;1.70;;;11.70;93.80;;;;;;5014167;28;20029;-43
2023/12/01 10:47:28;;;;;;;2.55;1.83;;;11.70;93.80;;;;;;5014897;28;20097;-44
2023/12/01 10:49:56;;;;;;;2.92;1.92;;;11.70;93.80;;;;;;5015168;28;20018;-44
2023/12/01 10:52:24;;;;;;;5.57;4.32;;;11.80;93.80;;;;;;5014400;28;20468;-44
2023/12/01 10:54:50;;;;;;;5.38;4.80;;;11.80;93.30;;;;;;5015582;28;20032;-44
2023/12/01 10:57:20;;;;;;;5.90;4.32;;;11.80;93.20;;;;;;5014651;28;20034;-44
2023/12/01 10:59:52;;;;;;;5.53;4.65;;;11.80;93.20;;;;;;5015484;28;20029;-43
2023/12/01 11:02:21;;;;;;;4.90;3.80;;;11.80;93.30;;;;;;5014901;28;20049;-44
2023/12/01 11:04:47;;;;;;;6.35;4.25;;;11.80;93.30;;;;;;5014158;28;20385;-44
2023/12/01 11:07:47;;;;;;;5.50;3.88;;;11.80;93.30;;;;;;5013972;28;20029;-44
2023/12/01 11:10:31;;;;;;;5.35;3.67;;;11.80;93.30;;;;;;5013974;28;20068;-43
2023/12/01 11:13:17;;;;;;;4.40;3.60;;;11.80;93.30;;;;;;5014223;28;20480;-44
2023/12/01 11:15:44;;;;;;;4.47;3.75;;;11.80;93.30;;;;;;5016727;28;20288;-43
2023/12/01 11:18:10;;;;;;;4.78;3.63;;;11.90;93.30;;;;;;5015924;28;20101;-44
2023/12/01 11:20:40;;;;;;;4.68;3.90;;;11.90;93.30;;;;;;5014910;28;20479;-44
2023/12/01 11:23:09;;;;;;;4.57;3.70;;;11.90;93.30;;;;;;5014189;28;20128;-42
2023/12/01 11:25:42;;;;;;;4.38;3.45;;;11.90;93.30;;;;;;5013696;28;20033;-41
2023/12/01 11:28:42;;;;;;;5.07;3.67;;;12.00;93.30;;;;;;5013631;28;20049;-43
2023/12/01 11:31:19;;;;;;;4.15;3.20;;;12.00;93.20;;;;;;5013587;28;20269;-44
2023/12/01 11:33:47;;;;;;;4.35;3.50;;;12.00;93.20;;;;;;5013844;28;20030;-43
2023/12/01 11:36:35;;;;;;;4.03;3.13;;;12.00;93.20;;;;;;5013566;28;20030;-43
2023/12/01 11:41:41;;;;;;;4.25;3.38;;;12.10;93.20;;;;;;5013782;28;20428;-41
2023/12/01 11:44:37;;;;;;;4.47;3.22;;;12.10;93.20;;;;;;5013346;28;20040;-44
2023/12/01 11:47:08;;;;;;;4.35;3.40;;;12.10;93.20;;;;;;5013708;28;20025;-44
2023/12/01 11:49:38;;;;;;;3.30;2.92;;;12.10;93.10;;;;;;5014547;28;20025;-44
2023/12/01 11:52:05;;;;;;;5.95;3.00;;;12.10;93.10;;;;;;5014501;28;20523;-44
2023/12/01 11:54:37;;;;;;;4.03;3.08;;;12.10;93.10;;;;;;5012862;28;20038;-44
2023/12/01 11:57:16;;;;;;;3.63;3.10;;;12.20;93.10;;;;;;5013087;28;20506;-44
2023/12/01 11:59:41;;;;;;;3.47;2.95;;;12.20;93.10;;;;;;5013135;28;20052;-44
2023/12/01 12:02:07;;;;;;;3.05;2.63;;;12.20;93.10;;;;;;5011627;28;20476;-44
2023/12/01 12:04:34;;;;;;;3.17;2.75;;;12.20;93.00;;;;;;5014272;28;20133;-44
2023/12/01 12:07:00;;;;;;;6.72;5.53;;;12.20;93.00;;;;;;5012843;28;20022;-44
2023/12/01 12:09:32;;;;;;;7.85;6.80;;;12.30;92.80;;;;;;5012849;28;20030;-44
2023/12/01 12:12:00;;;;;;;6.97;5.85;;;12.30;92.70;;;;;;5013240;28;20022;-43
2023/12/01 12:14:30;;;;;;;7.03;5.97;;;12.30;92.80;;;;;;5012886;28;20034;-43
2023/12/01 12:16:56;;;;;;;7.55;6.30;;;12.30;93.00;;;;;;5012723;28;20111;-43
2023/12/01 12:19:22;;;;;;;6.75;6.03;;;12.30;93.30;;;;;;5013515;28;20026;-44
2023/12/01 12:21:51;;;;;;;6.85;6.13;;;12.30;93.50;;;;;;5013593;28;20033;-44
2023/12/01 12:24:17;;;;;;;6.70;5.57;;;12.30;93.70;;;;;;5013203;28;20377;-43
2023/12/01 12:26:43;;;;;;;7.55;6.45;;;12.30;93.90;;;;;;5012825;28;20041;-44
2023/12/01 12:29:11;;;;;;;7.40;5.80;;;12.30;94.00;;;;;;5012865;28;20483;-44
2023/12/01 12:31:38;;;;;;;7.00;5.90;;;12.30;94.20;;;;;;5032471;28;20495;-44
2023/12/01 12:34:06;;;;;;;6.30;5.68;;;12.40;94.30;;;;;;5032165;28;20111;-44
2023/12/01 12:36:33;;;;;;;6.88;5.57;;;12.40;94.50;;;;;;5033021;28;20009;-44
2023/12/01 12:39:04;;;;;;;5.70;5.03;;;12.40;94.60;;;;;;5033459;28;20431;-43
2023/12/01 12:41:40;;;;;;;5.57;4.72;;;12.50;94.70;;;;;;5033846;28;20479;-44
2023/12/01 12:44:07;;;;;;;5.75;4.90;;;12.40;95.10;;;;;;5033482;28;20035;-44
2023/12/01 12:46:34;;;;;;;7.38;5.05;;;12.50;95.20;;;;;;5032065;28;20498;-44
2023/12/01 12:49:10;;;;;;;6.13;4.78;;;12.50;95.00;;;;;;5031781;28;20025;-43
2023/12/01 12:51:36;;;;;;;6.07;5.15;;;12.60;95.10;;;;;;5031938;28;20104;-43
2023/12/01 12:54:03;;;;;;;5.57;5.00;;;12.60;95.20;;;;;;5032124;28;20092;-43